Time;durP1;ratioP1;P1;durP2;ratioP2;P2;SDS_P1;SDS_P2;PMS_P1;PMS_P2;Temp;Humidity;BMP_temperature;BMP_pressure;BME280_temperature;BME280_humidity;BME280_pressure;Samples;Min_cycle;Max_cycle;Signal;HPM_P1;HPM_P2
2022/06/20 00:01:02;;;;;;;3.40;3.10;;;21.40;99.90;;;;;;495087;240;28839;-71
2022/06/20 00:03:03;;;;;;;3.03;2.83;;;21.30;99.90;;;;;;495070;240;28943;-74
2022/06/20 00:05:04;;;;;;;2.90;2.70;;;21.20;99.90;;;;;;495072;240;28854;-71
2022/06/20 00:07:05;;;;;;;3.30;3.00;;;21.20;99.90;;;;;;495027;240;28914;-72
2022/06/20 00:09:07;;;;;;;4.20;3.00;;;21.20;99.90;;;;;;495056;240;29236;-71
2022/06/20 00:11:08;;;;;;;3.43;3.00;;;21.30;99.90;;;;;;495050;240;29304;-72
2022/06/20 00:13:09;;;;;;;4.30;3.37;;;21.30;99.90;;;;;;495064;240;30181;-71
2022/06/20 00:15:10;;;;;;;4.07;3.20;;;21.20;99.90;;;;;;495062;240;28789;-71
2022/06/20 00:17:12;;;;;;;6.93;4.20;;;21.30;99.90;;;;;;495086;240;28916;-71
2022/06/20 00:19:13;;;;;;;9.30;3.90;;;21.20;99.90;;;;;;495105;240;28939;-71
2022/06/20 00:21:14;;;;;;;8.03;3.90;;;21.10;99.90;;;;;;495058;240;28858;-74
2022/06/20 00:23:15;;;;;;;5.00;3.70;;;21.20;99.90;;;;;;495072;240;28798;-71
2022/06/20 00:25:17;;;;;;;4.83;3.20;;;21.30;99.90;;;;;;495079;240;28801;-71
2022/06/20 00:27:18;;;;;;;4.47;3.70;;;21.30;99.90;;;;;;495073;240;28923;-74
2022/06/20 00:29:19;;;;;;;4.97;3.30;;;21.30;99.90;;;;;;495068;240;28792;-71
2022/06/20 00:31:21;;;;;;;3.40;3.10;;;21.30;99.90;;;;;;495057;240;28861;-72
2022/06/20 00:33:22;;;;;;;3.13;2.80;;;21.30;99.90;;;;;;495011;240;29288;-71
2022/06/20 00:35:23;;;;;;;4.53;3.47;;;21.20;99.90;;;;;;495094;240;29301;-71
2022/06/20 00:37:24;;;;;;;7.10;3.50;;;21.20;99.90;;;;;;495058;240;29972;-72
2022/06/20 00:39:25;;;;;;;4.30;3.00;;;21.20;99.90;;;;;;495074;240;29332;-71
2022/06/20 00:41:27;;;;;;;3.47;3.17;;;21.00;99.90;;;;;;495011;240;28902;-71
2022/06/20 00:43:28;;;;;;;3.27;2.97;;;20.90;99.90;;;;;;495084;240;28835;-71
2022/06/20 00:45:29;;;;;;;3.33;3.07;;;20.80;99.90;;;;;;495099;240;28809;-71
2022/06/20 00:47:30;;;;;;;3.53;3.23;;;20.60;99.90;;;;;;495083;240;28848;-73
2022/06/20 00:49:32;;;;;;;2.80;2.60;;;20.50;99.90;;;;;;495094;240;28811;-71
2022/06/20 00:51:33;;;;;;;8.60;3.60;;;20.40;99.90;;;;;;495084;240;28866;-72
2022/06/20 00:53:34;;;;;;;5.73;3.47;;;20.40;99.90;;;;;;495079;240;28865;-71
2022/06/20 00:55:35;;;;;;;3.67;3.10;;;20.50;99.90;;;;;;495101;240;28801;-71
2022/06/20 00:57:37;;;;;;;3.57;3.27;;;20.50;99.90;;;;;;495086;240;29328;-73
2022/06/20 00:59:38;;;;;;;3.40;3.10;;;20.40;99.90;;;;;;495113;240;29354;-70
2022/06/20 01:01:39;;;;;;;4.83;3.20;;;20.20;99.90;;;;;;495117;240;29323;-71
2022/06/20 01:03:40;;;;;;;3.17;2.97;;;20.20;99.90;;;;;;495102;240;29287;-71
2022/06/20 01:05:42;;;;;;;3.43;3.13;;;20.20;99.90;;;;;;495097;240;28792;-71
2022/06/20 01:07:43;;;;;;;3.93;2.93;;;20.20;99.90;;;;;;495111;240;28860;-73
2022/06/20 01:09:44;;;;;;;3.87;3.57;;;20.20;99.90;;;;;;495119;240;28787;-71
2022/06/20 01:11:45;;;;;;;5.70;3.30;;;20.20;99.90;;;;;;495122;240;28911;-71
2022/06/20 01:13:47;;;;;;;4.30;3.13;;;20.10;99.90;;;;;;495100;240;28787;-71
2022/06/20 01:15:48;;;;;;;3.57;3.27;;;20.10;99.90;;;;;;495126;240;29265;-71
2022/06/20 01:17:49;;;;;;;3.57;3.17;;;20.00;99.90;;;;;;495138;240;28876;-72
2022/06/20 01:19:50;;;;;;;3.97;3.63;;;20.00;99.90;;;;;;495093;240;28879;-71
2022/06/20 01:21:52;;;;;;;3.47;3.17;;;19.90;99.90;;;;;;495081;240;28917;-72
2022/06/20 01:23:53;;;;;;;3.50;3.17;;;19.90;99.90;;;;;;495087;240;29667;-72
2022/06/20 01:25:54;;;;;;;4.63;2.90;;;20.00;99.90;;;;;;495070;240;29275;-71
2022/06/20 01:27:55;;;;;;;7.53;3.63;;;19.90;99.90;;;;;;495044;240;29333;-71
2022/06/20 01:29:57;;;;;;;3.63;3.30;;;19.70;99.90;;;;;;495092;240;28835;-71
2022/06/20 01:31:58;;;;;;;4.37;3.97;;;19.60;99.90;;;;;;495090;240;28828;-71
2022/06/20 01:33:59;;;;;;;9.07;5.10;;;19.10;99.90;;;;;;495092;237;28914;-72
2022/06/20 01:38:20;;;;;;;12.90;5.53;;;19.20;99.90;;;;;;495019;240;28808;-71
2022/06/20 01:40:22;;;;;;;7.60;4.90;;;19.00;99.90;;;;;;495106;240;28858;-72
2022/06/20 01:42:23;;;;;;;8.47;5.20;;;19.10;99.90;;;;;;495111;240;29284;-71
2022/06/20 01:44:24;;;;;;;6.33;4.40;;;19.20;99.90;;;;;;495079;240;29438;-71
2022/06/20 01:46:25;;;;;;;9.83;5.10;;;19.00;99.90;;;;;;495085;240;29250;-71
2022/06/20 01:48:27;;;;;;;7.60;4.70;;;18.90;99.90;;;;;;495101;240;29323;-71
2022/06/20 01:50:28;;;;;;;9.50;4.87;;;18.80;99.90;;;;;;495041;240;28928;-73
2022/06/20 01:52:29;;;;;;;8.77;4.30;;;18.80;99.90;;;;;;495076;240;28796;-70
2022/06/20 01:54:30;;;;;;;8.57;4.13;;;18.70;99.90;;;;;;495066;240;28935;-72
2022/06/20 01:56:32;;;;;;;8.23;4.17;;;18.50;99.90;;;;;;495058;237;28840;-71
2022/06/20 01:58:33;;;;;;;8.67;4.60;;;18.50;99.90;;;;;;495085;240;28829;-70
2022/06/20 02:00:35;;;;;;;9.30;4.23;;;18.40;99.90;;;;;;495081;240;28892;-72
2022/06/20 02:02:35;;;;;;;6.90;4.00;;;18.50;99.90;;;;;;495095;240;28931;-71
2022/06/20 02:04:37;;;;;;;11.33;4.23;;;18.40;99.90;;;;;;495079;240;28843;-71
2022/06/20 02:06:38;;;;;;;8.83;4.13;;;18.30;99.90;;;;;;495072;240;29465;-74
2022/06/20 02:08:39;;;;;;;5.30;3.37;;;18.10;99.90;;;;;;495089;240;29345;-70
2022/06/20 02:10:40;;;;;;;10.17;3.70;;;18.20;99.90;;;;;;495074;240;29414;-72
2022/06/20 02:12:42;;;;;;;7.20;4.00;;;18.20;99.90;;;;;;495093;240;28832;-71
2022/06/20 02:14:43;;;;;;;9.23;3.93;;;18.10;99.90;;;;;;495069;240;28843;-71
2022/06/20 02:16:44;;;;;;;4.97;3.37;;;17.80;99.90;;;;;;495081;237;28859;-74
2022/06/20 02:18:45;;;;;;;8.40;4.10;;;17.90;99.90;;;;;;495070;240;28864;-71
2022/06/20 02:20:47;;;;;;;10.80;3.53;;;17.80;99.90;;;;;;495076;240;28909;-72
2022/06/20 02:22:48;;;;;;;6.17;3.90;;;17.80;99.90;;;;;;495069;240;28890;-71
2022/06/20 02:24:49;;;;;;;12.30;4.90;;;17.80;99.90;;;;;;495056;240;28883;-71
2022/06/20 02:26:50;;;;;;;7.53;4.03;;;17.60;99.90;;;;;;495010;240;28991;-73
2022/06/20 02:28:52;;;;;;;4.07;3.27;;;17.70;99.90;;;;;;495090;240;29326;-71
2022/06/20 02:30:53;;;;;;;4.03;3.03;;;17.80;99.90;;;;;;495072;240;29712;-71
2022/06/20 02:32:54;;;;;;;6.40;3.30;;;17.90;99.90;;;;;;495084;240;30140;-72
2022/06/20 02:34:55;;;;;;;6.60;3.20;;;17.80;99.90;;;;;;495069;240;29316;-71
2022/06/20 02:36:57;;;;;;;6.87;3.60;;;17.80;99.90;;;;;;495096;240;28847;-73
2022/06/20 02:38:58;;;;;;;4.00;3.17;;;17.60;99.90;;;;;;495083;240;28908;-70
2022/06/20 02:40:59;;;;;;;6.90;4.00;;;17.60;99.90;;;;;;495057;240;28808;-71
2022/06/20 02:43:00;;;;;;;9.00;4.00;;;17.50;99.90;;;;;;495066;240;28796;-70
2022/06/20 02:45:02;;;;;;;10.87;4.07;;;17.50;99.90;;;;;;495073;240;28830;-71
2022/06/20 02:47:03;;;;;;;6.80;3.67;;;17.50;99.90;;;;;;495075;240;29577;-73
2022/06/20 02:49:04;;;;;;;6.30;3.43;;;17.50;99.90;;;;;;494980;240;28804;-71
2022/06/20 02:51:06;;;;;;;8.27;3.37;;;17.40;99.90;;;;;;495112;240;28915;-71
2022/06/20 02:53:07;;;;;;;4.17;3.20;;;17.60;99.90;;;;;;495100;240;29362;-70
2022/06/20 02:55:08;;;;;;;5.53;3.27;;;17.90;99.90;;;;;;495081;240;29297;-70
2022/06/20 02:57:09;;;;;;;5.30;3.03;;;18.00;99.90;;;;;;495054;240;29329;-72
2022/06/20 02:59:10;;;;;;;5.20;3.17;;;17.90;99.90;;;;;;495091;240;29393;-70
2022/06/20 03:01:12;;;;;;;6.57;3.50;;;17.90;99.90;;;;;;495072;240;28912;-71
2022/06/20 03:03:13;;;;;;;7.17;3.40;;;17.70;99.90;;;;;;495075;240;28828;-71
2022/06/20 03:05:15;;;;;;;7.73;4.13;;;17.60;99.90;;;;;;495070;240;28861;-71
2022/06/20 03:07:15;;;;;;;5.93;3.37;;;17.80;99.90;;;;;;495059;240;30744;-74
2022/06/20 03:09:17;;;;;;;4.73;3.20;;;17.80;99.90;;;;;;495061;240;28899;-71
2022/06/20 03:11:18;;;;;;;6.30;3.20;;;18.00;99.90;;;;;;495040;240;28935;-72
2022/06/20 03:13:19;;;;;;;4.90;2.83;;;18.10;99.90;;;;;;495062;240;28815;-71
2022/06/20 03:15:20;;;;;;;3.43;2.47;;;18.10;99.90;;;;;;495065;240;28824;-71
2022/06/20 03:17:22;;;;;;;3.40;2.90;;;18.10;99.90;;;;;;495066;240;28849;-74
2022/06/20 03:19:23;;;;;;;3.10;2.80;;;18.20;99.90;;;;;;495067;240;29437;-71
2022/06/20 03:21:24;;;;;;;3.00;2.80;;;18.20;99.90;;;;;;495092;240;29375;-72
2022/06/20 03:23:25;;;;;;;9.33;3.30;;;18.20;99.90;;;;;;495103;240;29254;-71
2022/06/20 03:25:27;;;;;;;8.40;3.90;;;17.80;99.90;;;;;;495041;240;28830;-72
2022/06/20 03:27:28;;;;;;;4.43;3.20;;;17.70;99.90;;;;;;495079;240;28853;-70
2022/06/20 03:29:29;;;;;;;3.70;2.70;;;17.90;99.90;;;;;;495091;240;28898;-71
2022/06/20 03:31:30;;;;;;;3.13;2.43;;;18.00;99.90;;;;;;495069;240;28892;-72
2022/06/20 03:33:32;;;;;;;7.43;3.60;;;18.10;99.90;;;;;;495062;240;28780;-71
2022/06/20 03:35:33;;;;;;;5.13;3.00;;;17.90;99.90;;;;;;495059;240;28857;-71
2022/06/20 03:37:36;;;;;;;4.80;3.50;;;17.80;99.90;;;;;;495060;240;28852;-71
2022/06/20 03:39:36;;;;;;;4.77;2.93;;;17.90;99.90;;;;;;494913;240;28796;-71
2022/06/20 03:41:37;;;;;;;3.50;2.77;;;18.00;99.90;;;;;;495037;240;28820;-71
2022/06/20 03:43:38;;;;;;;4.83;3.03;;;18.20;99.90;;;;;;495078;240;30240;-72
2022/06/20 03:45:39;;;;;;;4.73;2.93;;;18.20;99.90;;;;;;495075;240;29397;-71
2022/06/20 03:47:40;;;;;;;2.87;2.43;;;18.30;99.90;;;;;;495015;240;29232;-71
2022/06/20 03:49:42;;;;;;;3.10;2.80;;;18.40;99.90;;;;;;495077;240;29345;-70
2022/06/20 03:51:43;;;;;;;3.00;2.80;;;18.40;99.90;;;;;;495112;240;28839;-73
2022/06/20 03:53:44;;;;;;;2.80;2.43;;;18.40;99.90;;;;;;495043;240;28831;-71
2022/06/20 03:55:45;;;;;;;3.70;2.90;;;18.40;99.90;;;;;;495075;240;28932;-72
2022/06/20 03:57:47;;;;;;;5.47;3.00;;;18.50;99.90;;;;;;494996;240;28788;-71
2022/06/20 03:59:48;;;;;;;3.90;2.70;;;18.40;99.90;;;;;;495089;240;28923;-71
2022/06/20 04:01:49;;;;;;;2.60;2.40;;;18.50;99.90;;;;;;495108;240;28971;-73
2022/06/20 04:03:50;;;;;;;2.80;2.40;;;18.50;99.90;;;;;;494964;240;28795;-71
2022/06/20 04:05:52;;;;;;;3.03;2.60;;;18.60;99.90;;;;;;495081;240;28917;-72
2022/06/20 04:07:53;;;;;;;2.50;2.30;;;18.60;99.90;;;;;;495059;240;28861;-70
2022/06/20 04:12:14;;;;;;;2.40;2.20;;;18.50;99.90;;;;;;495096;240;28835;-71
2022/06/20 04:14:15;;;;;;;3.83;2.70;;;18.50;99.90;;;;;;495063;240;28934;-71
2022/06/20 04:16:16;;;;;;;3.10;2.37;;;18.40;99.90;;;;;;495046;240;28845;-71
2022/06/20 04:18:29;;;;;;;2.93;2.73;;;18.40;99.90;;;;;;495082;236;29482;-73
2022/06/20 04:20:31;;;;;;;2.60;2.40;;;18.40;99.90;;;;;;495006;240;29401;-71
2022/06/20 04:22:32;;;;;;;3.20;2.30;;;18.50;99.90;;;;;;495074;240;29333;-72
2022/06/20 04:24:33;;;;;;;4.33;2.60;;;18.50;99.90;;;;;;495096;240;28836;-71
2022/06/20 04:26:34;;;;;;;4.80;2.30;;;18.60;99.90;;;;;;494833;240;28968;-72
2022/06/20 04:28:36;;;;;;;2.60;2.33;;;18.50;99.90;;;;;;495074;240;28830;-71
2022/06/20 04:30:37;;;;;;;2.53;2.20;;;18.50;99.90;;;;;;495103;240;28832;-71
2022/06/20 04:32:38;;;;;;;3.00;2.30;;;18.50;99.90;;;;;;495100;240;28899;-72
2022/06/20 04:34:39;;;;;;;2.87;2.17;;;18.60;99.90;;;;;;495063;240;28796;-71
2022/06/20 04:36:41;;;;;;;2.43;2.20;;;18.60;99.90;;;;;;495090;240;28861;-71
2022/06/20 04:38:42;;;;;;;2.70;2.23;;;18.60;99.90;;;;;;495133;237;28832;-71
2022/06/20 04:40:43;;;;;;;2.53;2.33;;;18.50;99.90;;;;;;495103;240;28855;-71
2022/06/20 04:42:44;;;;;;;4.00;2.73;;;18.40;99.90;;;;;;495107;240;29407;-71
2022/06/20 04:44:46;;;;;;;2.40;2.20;;;18.40;99.90;;;;;;495100;240;29406;-71
2022/06/20 04:46:47;;;;;;;4.77;3.03;;;18.40;99.90;;;;;;495087;240;29375;-71
2022/06/20 04:48:48;;;;;;;4.60;2.73;;;18.40;99.90;;;;;;495090;240;30068;-71
2022/06/20 04:50:49;;;;;;;6.00;2.70;;;18.40;99.90;;;;;;495104;240;28792;-71
2022/06/20 04:52:51;;;;;;;3.63;2.90;;;18.40;99.90;;;;;;495090;240;28850;-71
2022/06/20 04:54:52;;;;;;;2.77;2.57;;;18.50;99.90;;;;;;495111;240;28887;-72
2022/06/20 04:56:53;;;;;;;3.40;2.77;;;18.50;99.90;;;;;;495104;240;28861;-71
2022/06/20 04:58:55;;;;;;;4.30;2.90;;;18.50;99.90;;;;;;494904;240;28800;-71
2022/06/20 05:00:56;;;;;;;2.90;2.60;;;18.60;99.90;;;;;;495069;240;28882;-71
2022/06/20 05:02:57;;;;;;;3.87;2.93;;;18.50;99.90;;;;;;495095;240;28936;-73
2022/06/20 05:04:58;;;;;;;3.70;3.30;;;18.50;99.90;;;;;;495113;240;28832;-71
2022/06/20 05:07:00;;;;;;;3.43;2.90;;;18.40;99.90;;;;;;495085;240;29532;-71
2022/06/20 05:09:01;;;;;;;3.53;3.00;;;18.40;99.90;;;;;;495006;237;29500;-71
2022/06/20 05:11:02;;;;;;;3.00;2.70;;;18.50;99.90;;;;;;495100;240;29323;-71
2022/06/20 05:13:03;;;;;;;4.63;2.97;;;18.50;99.90;;;;;;495139;240;29420;-72
2022/06/20 05:15:05;;;;;;;5.50;3.13;;;18.50;99.90;;;;;;495108;240;28812;-71
2022/06/20 05:17:06;;;;;;;6.60;3.50;;;18.50;99.90;;;;;;495132;240;28875;-72
2022/06/20 05:19:07;;;;;;;2.90;2.70;;;18.50;99.90;;;;;;495126;240;28805;-71
2022/06/20 05:21:08;;;;;;;6.07;3.10;;;18.50;99.90;;;;;;495057;240;28796;-70
2022/06/20 05:23:10;;;;;;;5.17;2.93;;;18.50;99.90;;;;;;495113;240;28901;-74
2022/06/20 05:25:11;;;;;;;3.13;2.77;;;18.50;99.90;;;;;;494862;240;28800;-71
2022/06/20 05:27:12;;;;;;;2.80;2.57;;;18.50;99.90;;;;;;495093;240;28926;-72
2022/06/20 05:29:13;;;;;;;7.63;3.53;;;18.30;99.90;;;;;;495024;240;28879;-70
2022/06/20 05:31:15;;;;;;;3.70;2.70;;;18.30;99.90;;;;;;495065;240;28921;-71
2022/06/20 05:33:16;;;;;;;4.40;2.80;;;18.40;99.90;;;;;;494978;240;29311;-73
2022/06/20 05:35:17;;;;;;;3.00;2.60;;;18.50;99.90;;;;;;494985;240;29228;-72
2022/06/20 05:37:18;;;;;;;4.30;3.03;;;18.50;99.90;;;;;;495093;240;29365;-72
2022/06/20 05:39:20;;;;;;;4.07;3.27;;;18.20;99.90;;;;;;495107;240;28910;-72
2022/06/20 05:41:21;;;;;;;4.37;3.97;;;17.90;99.90;;;;;;495110;240;28876;-72
2022/06/20 05:43:22;;;;;;;9.83;3.83;;;17.80;99.90;;;;;;495114;240;28894;-72
2022/06/20 05:45:23;;;;;;;6.03;3.87;;;17.60;99.90;;;;;;495085;240;28838;-71
2022/06/20 05:47:25;;;;;;;5.07;3.90;;;17.50;99.90;;;;;;495081;240;28840;-72
2022/06/20 05:49:26;;;;;;;4.70;3.50;;;17.50;99.90;;;;;;495081;240;28827;-72
2022/06/20 05:51:27;;;;;;;4.40;3.17;;;17.50;99.90;;;;;;495103;240;28912;-71
2022/06/20 05:53:28;;;;;;;3.50;3.03;;;17.60;99.90;;;;;;495090;240;28838;-72
2022/06/20 05:55:30;;;;;;;5.00;3.47;;;17.70;99.90;;;;;;495087;240;28797;-71
2022/06/20 05:57:31;;;;;;;3.80;3.27;;;17.70;99.90;;;;;;494994;240;29292;-71
2022/06/20 05:59:32;;;;;;;3.83;3.20;;;17.70;99.90;;;;;;495078;240;30097;-72
2022/06/20 06:01:33;;;;;;;3.27;2.83;;;17.90;99.90;;;;;;495005;240;29327;-71
2022/06/20 06:03:35;;;;;;;7.87;3.57;;;18.10;99.90;;;;;;495097;240;29312;-72
2022/06/20 06:05:36;;;;;;;3.00;2.80;;;18.10;99.90;;;;;;495099;240;28893;-71
2022/06/20 06:07:37;;;;;;;3.50;3.20;;;18.30;99.90;;;;;;495091;240;28827;-72
2022/06/20 06:09:38;;;;;;;3.07;2.50;;;18.30;99.90;;;;;;495030;240;28807;-71
2022/06/20 06:11:40;;;;;;;3.00;2.70;;;18.30;99.90;;;;;;495099;240;28886;-72
2022/06/20 06:13:42;;;;;;;4.90;3.00;;;18.50;99.90;;;;;;495093;240;28843;-73
2022/06/20 06:16:46;;;;;;;5.33;4.10;;;18.70;99.90;;;;;;494941;240;28824;-71
2022/06/20 06:17:43;;;;;;;3.73;2.90;;;18.70;99.90;;;;;;493328;240;28853;-72
2022/06/20 06:19:45;;;;;;;3.43;2.50;;;18.90;99.90;;;;;;495100;240;28831;-74
2022/06/20 06:21:47;;;;;;;6.60;3.27;;;19.00;99.90;;;;;;495055;240;29445;-73
2022/06/20 06:23:47;;;;;;;8.07;3.13;;;18.80;99.90;;;;;;494997;240;29320;-72
2022/06/20 06:25:48;;;;;;;4.23;2.93;;;18.60;99.90;;;;;;495082;240;29468;-71
2022/06/20 06:27:50;;;;;;;4.47;3.03;;;18.60;99.90;;;;;;495023;240;29308;-71
2022/06/20 06:29:51;;;;;;;4.33;3.40;;;18.80;99.90;;;;;;495036;240;28853;-73
2022/06/20 06:31:52;;;;;;;6.87;3.77;;;18.60;99.90;;;;;;495122;240;28837;-71
2022/06/20 06:33:53;;;;;;;4.97;3.80;;;18.30;99.90;;;;;;495028;237;28863;-72
2022/06/20 06:35:55;;;;;;;3.90;3.50;;;18.30;99.90;;;;;;494806;240;28816;-71
2022/06/20 06:37:56;;;;;;;8.07;3.50;;;18.40;99.90;;;;;;495028;240;28856;-71
2022/06/20 06:39:57;;;;;;;3.73;3.10;;;18.50;99.90;;;;;;495100;240;29276;-71
2022/06/20 06:41:58;;;;;;;4.27;3.10;;;18.60;99.90;;;;;;495088;240;28808;-71
2022/06/20 06:44:00;;;;;;;3.03;2.73;;;18.70;99.90;;;;;;495077;240;28939;-72
2022/06/20 06:46:01;;;;;;;4.10;3.30;;;18.70;99.90;;;;;;495071;240;28797;-71
2022/06/20 06:48:02;;;;;;;4.57;3.70;;;18.60;99.90;;;;;;495081;240;29358;-72
2022/06/20 06:50:03;;;;;;;3.60;3.23;;;18.50;99.90;;;;;;495079;240;29359;-73
2022/06/20 06:52:05;;;;;;;5.10;3.13;;;18.50;99.90;;;;;;495068;240;29363;-71
2022/06/20 06:54:06;;;;;;;3.70;3.27;;;18.70;99.90;;;;;;495104;240;28923;-72
2022/06/20 06:56:07;;;;;;;4.27;3.40;;;18.70;99.90;;;;;;495119;240;28793;-72
2022/06/20 06:58:08;;;;;;;4.23;3.03;;;18.70;99.90;;;;;;495093;240;28824;-72
2022/06/20 07:00:12;;;;;;;3.00;2.70;;;18.70;99.90;;;;;;495013;240;28839;-73
2022/06/20 07:02:11;;;;;;;5.77;3.00;;;18.70;99.90;;;;;;494926;240;28796;-71
2022/06/20 07:04:12;;;;;;;3.13;2.87;;;18.70;99.90;;;;;;494680;240;28849;-72
2022/06/20 07:06:13;;;;;;;5.27;2.60;;;18.70;99.90;;;;;;494974;240;28862;-71
2022/06/20 07:08:15;;;;;;;3.27;2.97;;;18.60;99.90;;;;;;494930;240;28848;-71
2022/06/20 07:10:16;;;;;;;4.93;3.10;;;18.50;99.90;;;;;;495081;240;28855;-73
2022/06/20 07:12:17;;;;;;;3.00;2.80;;;18.40;99.90;;;;;;495086;240;29251;-71
2022/06/20 07:14:18;;;;;;;4.00;3.00;;;18.30;99.90;;;;;;494893;240;29288;-72
2022/06/20 07:16:20;;;;;;;6.30;3.27;;;18.30;99.90;;;;;;495079;240;29255;-71
2022/06/20 07:18:21;;;;;;;5.77;3.10;;;18.40;99.90;;;;;;495095;240;28829;-71
2022/06/20 07:20:22;;;;;;;3.40;2.90;;;18.60;99.90;;;;;;495032;240;28829;-72
2022/06/20 07:22:23;;;;;;;5.10;2.70;;;18.70;99.90;;;;;;495011;240;28945;-71
2022/06/20 07:24:25;;;;;;;2.83;2.63;;;18.80;99.90;;;;;;495094;240;28832;-72
2022/06/20 07:26:26;;;;;;;3.00;2.80;;;19.00;99.90;;;;;;495039;240;28791;-71
2022/06/20 07:28:27;;;;;;;3.50;2.70;;;19.00;99.90;;;;;;495037;240;28840;-71
2022/06/20 07:30:28;;;;;;;6.30;3.10;;;19.20;99.90;;;;;;495078;240;28852;-73
2022/06/20 07:32:30;;;;;;;2.90;2.70;;;19.20;99.90;;;;;;495097;240;28802;-72
2022/06/20 07:34:31;;;;;;;3.70;2.90;;;19.40;99.90;;;;;;494964;240;28831;-72
2022/06/20 07:36:32;;;;;;;3.23;2.60;;;19.30;99.90;;;;;;495080;240;30068;-71
2022/06/20 07:38:33;;;;;;;3.17;2.80;;;19.30;99.90;;;;;;495052;240;29426;-71
2022/06/20 07:40:35;;;;;;;4.63;3.47;;;19.20;99.90;;;;;;495068;240;29278;-74
2022/06/20 07:42:36;;;;;;;3.63;3.00;;;19.20;99.90;;;;;;494941;240;29252;-71
2022/06/20 07:44:37;;;;;;;6.00;2.87;;;19.10;99.90;;;;;;495007;240;28832;-72
2022/06/20 07:46:38;;;;;;;3.53;2.90;;;19.20;99.90;;;;;;495074;240;28840;-71
2022/06/20 07:48:40;;;;;;;3.33;2.90;;;19.30;99.90;;;;;;495071;240;28986;-72
2022/06/20 07:50:42;;;;;;;3.20;2.80;;;19.40;99.90;;;;;;495026;240;28864;-73
2022/06/20 07:52:42;;;;;;;4.60;3.13;;;19.60;99.90;;;;;;495063;240;28860;-72
2022/06/20 07:54:43;;;;;;;4.77;3.07;;;20.00;99.90;;;;;;495023;240;28893;-72
2022/06/20 07:56:45;;;;;;;4.20;2.53;;;20.30;99.90;;;;;;495009;240;28930;-72
2022/06/20 07:58:48;;;;;;;3.73;2.63;;;20.50;99.90;;;;;;494978;240;28907;-71
2022/06/20 08:00:47;;;;;;;3.63;2.80;;;20.70;99.90;;;;;;494967;240;29371;-73
2022/06/20 08:02:48;;;;;;;5.70;3.10;;;20.80;99.90;;;;;;495029;240;29336;-72
2022/06/20 08:04:50;;;;;;;2.67;2.47;;;20.90;99.90;;;;;;495097;240;29328;-73
2022/06/20 08:06:51;;;;;;;5.43;3.27;;;20.90;99.90;;;;;;494972;240;29249;-72
2022/06/20 08:08:52;;;;;;;3.57;2.77;;;20.80;99.90;;;;;;494973;240;28809;-72
2022/06/20 08:10:53;;;;;;;5.03;3.40;;;20.70;99.90;;;;;;495077;240;28951;-73
2022/06/20 08:12:55;;;;;;;4.60;3.07;;;20.60;99.90;;;;;;495097;240;28808;-72
2022/06/20 08:14:56;;;;;;;4.17;3.10;;;20.70;99.90;;;;;;494924;237;28911;-72
2022/06/20 08:16:57;;;;;;;5.77;3.13;;;20.80;99.90;;;;;;495102;240;28809;-72
2022/06/20 08:18:59;;;;;;;3.20;2.77;;;20.90;99.90;;;;;;495112;240;28870;-72
2022/06/20 08:21:00;;;;;;;3.30;3.00;;;21.00;99.90;;;;;;495049;240;28900;-73
2022/06/20 08:23:01;;;;;;;4.90;3.20;;;21.30;99.90;;;;;;495092;240;28806;-72
2022/06/20 08:25:02;;;;;;;4.40;3.37;;;21.50;99.90;;;;;;495086;240;29456;-72
2022/06/20 08:27:03;;;;;;;8.23;3.67;;;21.60;99.90;;;;;;495006;240;29325;-72
2022/06/20 08:29:05;;;;;;;8.37;3.70;;;21.50;99.90;;;;;;495083;240;28834;-72
2022/06/20 08:31:06;;;;;;;3.63;3.30;;;21.60;99.90;;;;;;495087;240;28853;-74
2022/06/20 08:33:07;;;;;;;3.50;3.10;;;21.70;99.90;;;;;;495090;240;28886;-72
2022/06/20 08:35:08;;;;;;;3.83;2.83;;;21.80;99.90;;;;;;494947;240;28849;-72
2022/06/20 08:37:10;;;;;;;3.57;2.97;;;22.00;99.90;;;;;;495073;240;28812;-72
2022/06/20 08:39:11;;;;;;;4.07;3.00;;;22.20;99.90;;;;;;495051;240;28828;-72
2022/06/20 08:41:12;;;;;;;3.00;2.70;;;22.30;99.90;;;;;;495032;240;28932;-75
2022/06/20 08:43:14;;;;;;;3.30;2.80;;;22.30;99.90;;;;;;494876;240;29419;-72
2022/06/20 08:45:15;;;;;;;2.93;2.73;;;22.20;99.90;;;;;;495088;240;29307;-74
2022/06/20 08:47:16;;;;;;;3.73;3.00;;;22.10;99.90;;;;;;495072;240;29350;-72
2022/06/20 08:49:17;;;;;;;6.43;3.20;;;21.90;99.90;;;;;;495071;240;29403;-73
2022/06/20 08:51:19;;;;;;;5.07;3.53;;;21.80;99.90;;;;;;495053;240;28853;-74
2022/06/20 08:53:20;;;;;;;4.03;3.07;;;22.00;99.90;;;;;;495085;240;28798;-72
2022/06/20 08:55:21;;;;;;;5.00;3.37;;;22.00;99.90;;;;;;494987;240;28901;-73
2022/06/20 08:57:22;;;;;;;5.53;3.70;;;22.00;99.90;;;;;;495008;240;28891;-72
2022/06/20 08:59:24;;;;;;;6.50;3.90;;;21.80;99.90;;;;;;495092;240;28961;-72
2022/06/20 09:01:25;;;;;;;3.93;3.37;;;22.10;99.90;;;;;;495013;240;29197;-74
2022/06/20 09:03:27;;;;;;;6.63;3.53;;;22.20;99.90;;;;;;495089;240;28812;-72
2022/06/20 09:05:27;;;;;;;6.20;3.77;;;22.10;99.90;;;;;;494952;240;28818;-72
2022/06/20 09:07:29;;;;;;;5.93;3.13;;;21.90;99.90;;;;;;495105;240;29273;-71
2022/06/20 09:09:30;;;;;;;4.80;3.50;;;21.80;99.90;;;;;;495080;240;29420;-72
2022/06/20 09:11:31;;;;;;;3.87;3.37;;;21.70;99.90;;;;;;495083;237;30043;-72
2022/06/20 09:13:32;;;;;;;5.87;4.07;;;21.60;99.90;;;;;;495095;240;29247;-72
2022/06/20 09:15:34;;;;;;;4.37;3.57;;;21.40;99.90;;;;;;494980;240;28833;-73
2022/06/20 09:17:35;;;;;;;7.77;3.67;;;21.30;99.90;;;;;;495074;240;28805;-72
2022/06/20 09:19:36;;;;;;;3.63;3.33;;;21.20;99.90;;;;;;495106;240;28832;-72
2022/06/20 09:21:37;;;;;;;7.30;3.53;;;21.10;99.90;;;;;;495127;237;28885;-71
2022/06/20 09:23:39;;;;;;;5.40;3.10;;;21.10;99.90;;;;;;495098;240;28822;-72
2022/06/20 09:25:40;;;;;;;4.53;3.53;;;20.90;99.90;;;;;;495112;240;28937;-72
2022/06/20 09:27:41;;;;;;;4.20;3.80;;;20.50;99.90;;;;;;495012;240;28925;-72
2022/06/20 09:29:42;;;;;;;5.57;3.30;;;20.20;99.90;;;;;;495125;240;28820;-73
2022/06/20 09:31:44;;;;;;;5.67;3.57;;;20.20;99.90;;;;;;495109;240;29434;-71
2022/06/20 09:33:45;;;;;;;3.83;3.40;;;20.20;99.90;;;;;;494959;240;29349;-71
2022/06/20 09:35:46;;;;;;;3.70;3.23;;;20.50;99.90;;;;;;495094;240;29391;-73
2022/06/20 09:37:47;;;;;;;7.40;3.83;;;20.70;99.90;;;;;;494992;240;29241;-72
2022/06/20 09:39:49;;;;;;;6.27;3.17;;;20.90;99.90;;;;;;495069;240;28851;-72
2022/06/20 09:41:50;;;;;;;6.57;3.60;;;21.30;99.90;;;;;;495089;240;28865;-72
2022/06/20 09:43:51;;;;;;;6.40;3.60;;;21.30;99.90;;;;;;495091;240;28819;-72
2022/06/20 09:45:52;;;;;;;8.80;3.50;;;21.30;99.90;;;;;;495061;240;28932;-74
2022/06/20 09:47:54;;;;;;;4.27;3.00;;;21.40;99.90;;;;;;495116;240;28854;-72
2022/06/20 09:49:55;;;;;;;5.10;3.40;;;21.50;99.90;;;;;;494963;240;28844;-73
2022/06/20 09:51:56;;;;;;;4.00;3.40;;;21.50;99.90;;;;;;494940;240;28890;-72
2022/06/20 09:53:59;;;;;;;4.60;3.63;;;21.20;99.90;;;;;;495051;240;29289;-72
2022/06/20 09:55:59;;;;;;;5.30;3.77;;;20.80;99.90;;;;;;495036;240;29405;-74
2022/06/20 09:58:00;;;;;;;7.00;3.90;;;20.60;99.90;;;;;;495092;240;29437;-72
2022/06/20 10:00:01;;;;;;;4.70;3.60;;;20.50;99.90;;;;;;495049;240;28888;-72
2022/06/20 10:02:02;;;;;;;4.80;3.67;;;20.50;99.90;;;;;;495001;240;28791;-72
2022/06/20 10:04:04;;;;;;;3.17;2.90;;;20.70;99.90;;;;;;495096;240;28864;-72
2022/06/20 10:06:05;;;;;;;5.90;3.30;;;20.80;99.90;;;;;;495095;240;28874;-74
2022/06/20 10:08:06;;;;;;;4.10;3.60;;;21.00;99.90;;;;;;494900;240;28709;-72
2022/06/20 10:10:07;;;;;;;4.77;3.80;;;21.30;99.90;;;;;;495062;240;28846;-73
2022/06/20 10:12:09;;;;;;;5.00;3.13;;;21.30;99.90;;;;;;495069;240;28818;-73
2022/06/20 10:14:10;;;;;;;3.90;2.97;;;21.50;99.90;;;;;;495053;240;29030;-72
2022/06/20 10:16:11;;;;;;;5.40;3.20;;;21.40;99.90;;;;;;495110;240;28975;-74
2022/06/20 10:18:12;;;;;;;5.67;2.90;;;21.30;99.90;;;;;;495067;240;29287;-72
2022/06/20 10:20:14;;;;;;;6.73;3.37;;;21.50;99.90;;;;;;495093;240;29401;-73
2022/06/20 10:22:15;;;;;;;3.80;3.10;;;21.40;99.90;;;;;;495093;240;29276;-72
2022/06/20 10:24:16;;;;;;;3.77;2.80;;;21.30;99.90;;;;;;495009;240;29329;-72
2022/06/20 10:26:17;;;;;;;4.07;3.10;;;21.50;99.90;;;;;;495105;240;28935;-73
2022/06/20 10:28:19;;;;;;;4.47;3.10;;;21.50;99.90;;;;;;495082;240;28895;-72
2022/06/20 10:30:20;;;;;;;5.63;2.70;;;21.50;99.90;;;;;;495113;240;28825;-73
2022/06/20 10:32:23;;;;;;;3.37;3.07;;;21.30;99.90;;;;;;495109;240;28804;-72
2022/06/20 10:34:22;;;;;;;3.03;2.77;;;21.20;99.90;;;;;;495015;240;28847;-72